createdAt,value
2023-04-02T00:00:48.714Z,89.60
2023-04-02T00:01:48.713Z,89.92
2023-04-02T00:02:48.678Z,89.81
2023-04-02T00:03:48.680Z,89.60
2023-04-02T00:04:48.644Z,89.60
2023-04-02T00:05:48.633Z,89.81
2023-04-02T00:06:48.605Z,90.02
2023-04-02T00:07:48.625Z,89.92
2023-04-02T00:08:48.595Z,89.81
2023-04-02T00:09:48.588Z,89.39
2023-04-02T00:10:48.619Z,89.39
2023-04-02T00:11:48.582Z,89.60
2023-04-02T00:12:48.563Z,89.60
2023-04-02T00:13:48.533Z,89.33
2023-04-02T00:14:48.534Z,89.64
2023-04-02T00:15:48.585Z,90.16
2023-04-02T00:16:48.589Z,89.95
2023-04-02T00:17:48.515Z,90.16
2023-04-02T00:18:48.576Z,89.95
2023-04-02T00:19:48.485Z,89.85
2023-04-02T00:20:48.480Z,89.85
2023-04-02T00:21:48.448Z,89.95
2023-04-02T00:22:48.446Z,89.43
2023-04-02T00:23:48.555Z,89.33
2023-04-02T00:24:48.425Z,89.23
2023-04-02T00:25:48.445Z,89.64
2023-04-02T00:26:48.427Z,89.85
2023-04-02T00:27:48.400Z,89.75
2023-04-02T00:28:48.386Z,89.43
2023-04-02T00:29:48.384Z,89.33
2023-04-02T00:30:48.363Z,89.54
2023-04-02T00:31:48.411Z,89.54
2023-04-02T00:32:48.374Z,89.23
2023-04-02T00:33:48.347Z,88.92
2023-04-02T00:34:48.328Z,88.92
2023-04-02T00:35:48.324Z,88.92
2023-04-02T00:36:48.305Z,88.50
2023-04-02T00:37:48.300Z,88.71
2023-04-02T00:38:48.895Z,89.02
2023-04-02T00:39:48.275Z,89.02
2023-04-02T00:40:48.254Z,88.50
2023-04-02T00:41:48.262Z,88.60
2023-04-02T00:42:48.229Z,88.40
2023-04-02T00:43:48.228Z,88.92
2023-04-02T00:44:48.208Z,89.02
2023-04-02T00:45:48.247Z,89.12
2023-04-02T00:46:48.201Z,88.81
2023-04-02T00:47:48.214Z,88.60
2023-04-02T00:48:48.165Z,88.50
2023-04-02T00:49:48.165Z,88.29
2023-04-02T00:50:48.146Z,88.40
2023-04-02T00:51:48.179Z,87.77
2023-04-02T00:52:48.131Z,87.88
2023-04-02T00:53:48.125Z,88.29
2023-04-02T00:54:48.106Z,88.19
2023-04-02T00:55:48.105Z,87.77
2023-04-02T00:56:48.133Z,88.50
2023-04-02T00:57:48.063Z,88.50
2023-04-02T00:58:48.071Z,88.71
2023-04-02T00:59:48.047Z,88.40
2023-04-02T01:00:48.063Z,88.19
2023-04-02T01:01:48.146Z,87.66
2023-04-02T01:02:48.103Z,87.88
2023-04-02T01:03:48.040Z,88.19
2023-04-02T01:04:48.001Z,87.98
2023-04-02T01:05:48.022Z,88.19
2023-04-02T01:06:48.027Z,88.19
2023-04-02T01:07:47.985Z,88.29
2023-04-02T01:08:47.967Z,88.40
2023-04-02T01:09:47.939Z,88.50
2023-04-02T01:10:47.926Z,88.60
2023-04-02T01:11:47.937Z,88.81
2023-04-02T01:12:47.944Z,88.40
2023-04-02T01:13:47.888Z,88.40
2023-04-02T01:14:47.876Z,88.60
2023-04-02T01:15:47.903Z,88.40
2023-04-02T01:16:47.884Z,88.71
2023-04-02T01:17:47.861Z,89.12
2023-04-02T01:18:47.854Z,88.19
2023-04-02T01:19:47.829Z,88.71
2023-04-02T01:20:47.833Z,88.40
2023-04-02T01:21:47.834Z,88.29
2023-04-02T01:22:47.796Z,88.60
2023-04-02T01:23:47.784Z,89.12
2023-04-02T01:24:47.785Z,89.54
2023-04-02T01:25:47.798Z,89.02
2023-04-02T01:26:47.772Z,88.40
2023-04-02T01:27:47.744Z,88.50
2023-04-02T01:28:47.719Z,88.19
2023-04-02T01:29:47.739Z,88.50
2023-04-02T01:30:47.713Z,88.60
2023-04-02T01:31:47.764Z,88.40
2023-04-02T01:32:47.724Z,88.92
2023-04-02T01:33:47.690Z,88.71
2023-04-02T01:34:47.687Z,88.50
2023-04-02T01:35:47.655Z,89.02
2023-04-02T01:36:47.673Z,89.12
2023-04-02T01:37:47.630Z,89.33
2023-04-02T01:38:47.639Z,89.43
2023-04-02T01:39:47.604Z,89.12
2023-04-02T01:40:47.594Z,89.23
2023-04-02T01:41:47.601Z,89.54
2023-04-02T01:42:47.600Z,89.27
2023-04-02T01:43:47.571Z,89.48
2023-04-02T01:44:47.552Z,89.54
2023-04-02T01:45:47.546Z,89.43
2023-04-02T01:46:47.577Z,89.43
2023-04-02T01:47:47.556Z,89.23
2023-04-02T01:48:47.512Z,89.23
2023-04-02T01:49:47.494Z,89.48
2023-04-02T01:50:47.487Z,89.75
2023-04-02T01:51:47.500Z,89.95
2023-04-02T01:52:47.469Z,90.10
2023-04-02T01:53:47.478Z,89.69
2023-04-02T01:54:47.469Z,89.69
2023-04-02T01:55:47.431Z,89.79
2023-04-02T01:56:47.519Z,89.89
2023-04-02T01:57:47.448Z,89.89
2023-04-02T01:58:47.401Z,89.58
2023-04-02T01:59:47.404Z,89.69
2023-04-02T02:00:47.419Z,89.79
2023-04-02T02:01:47.430Z,89.79
2023-04-02T02:02:47.369Z,89.79
2023-04-02T02:03:47.344Z,89.79
2023-04-02T02:04:47.357Z,89.89
2023-04-02T02:05:47.362Z,89.89
2023-04-02T02:06:47.381Z,89.69
2023-04-02T02:07:47.315Z,89.89
2023-04-02T02:08:47.306Z,90.00
2023-04-02T02:09:47.273Z,90.10
2023-04-02T02:10:47.297Z,90.20
2023-04-02T02:11:47.286Z,89.89
2023-04-02T02:12:47.270Z,89.89
2023-04-02T02:13:47.243Z,90.10
2023-04-02T02:14:47.239Z,90.31
2023-04-02T02:15:47.226Z,90.52
2023-04-02T02:16:47.291Z,90.62
2023-04-02T02:17:47.256Z,90.31
2023-04-02T02:18:47.180Z,89.89
2023-04-02T02:19:47.173Z,90.10
2023-04-02T02:20:47.171Z,89.89
2023-04-02T02:21:47.169Z,89.69
2023-04-02T02:22:47.152Z,89.79
2023-04-02T02:23:47.158Z,89.37
2023-04-02T02:24:47.144Z,89.48
2023-04-02T02:25:47.113Z,89.48
2023-04-02T02:26:47.129Z,89.79
2023-04-02T02:27:47.112Z,89.79
2023-04-02T02:28:47.076Z,89.69
2023-04-02T02:29:47.086Z,89.58
2023-04-02T02:30:47.062Z,89.48
2023-04-02T02:31:47.105Z,89.48
2023-04-02T02:32:47.054Z,88.85
2023-04-02T02:33:47.034Z,88.75
2023-04-02T02:34:47.016Z,89.06
2023-04-02T02:35:47.036Z,88.54
2023-04-02T02:36:47.012Z,88.64
2023-04-02T02:37:46.983Z,88.64
2023-04-02T02:38:46.978Z,87.77
2023-04-02T02:39:46.957Z,87.46
2023-04-02T02:40:46.968Z,87.77
2023-04-02T02:41:46.962Z,87.35
2023-04-02T02:42:46.930Z,87.15
2023-04-02T02:43:46.928Z,87.25
2023-04-02T02:44:46.903Z,87.46
2023-04-02T02:45:46.934Z,87.25
2023-04-02T02:46:46.915Z,87.25
2023-04-02T02:47:46.915Z,87.56
2023-04-02T02:48:46.867Z,87.04
2023-04-02T02:49:46.864Z,87.04
2023-04-02T02:50:46.840Z,87.15
2023-04-02T02:51:46.859Z,87.46
2023-04-02T02:52:46.829Z,86.63
2023-04-02T02:53:46.815Z,86.73
2023-04-02T02:54:46.802Z,86.73
2023-04-02T02:55:46.782Z,86.73
2023-04-02T02:56:46.835Z,86.11
2023-04-02T02:57:46.802Z,86.00
2023-04-02T02:58:46.819Z,86.52
2023-04-02T02:59:46.739Z,86.42
2023-04-02T03:00:46.760Z,86.42
2023-04-02T03:01:46.832Z,85.80
2023-04-02T03:02:46.791Z,85.49
2023-04-02T03:03:46.849Z,85.69
2023-04-02T03:04:46.689Z,86.21
2023-04-02T03:05:46.681Z,86.63
2023-04-02T03:06:46.673Z,86.63
2023-04-02T03:07:46.682Z,86.00
2023-04-02T03:08:46.661Z,86.00
2023-04-02T03:09:46.636Z,86.42
2023-04-02T03:10:46.622Z,85.90
2023-04-02T03:11:46.650Z,86.00
2023-04-02T03:12:46.606Z,86.00
2023-04-02T03:13:46.583Z,86.00
2023-04-02T03:14:46.572Z,85.90
2023-04-02T03:15:46.592Z,85.90
2023-04-02T03:16:46.559Z,85.90
2023-04-02T03:17:46.597Z,86.00
2023-04-02T03:18:46.551Z,86.21
2023-04-02T03:19:46.526Z,85.59
2023-04-02T03:20:46.510Z,85.38
2023-04-02T03:21:46.520Z,85.49
2023-04-02T03:22:46.511Z,85.90
2023-04-02T03:23:46.488Z,86.21
2023-04-02T03:24:46.473Z,86.32
2023-04-02T03:25:46.470Z,85.90
2023-04-02T03:26:46.447Z,85.90
2023-04-02T03:27:46.471Z,85.59
2023-04-02T03:28:46.445Z,85.80
2023-04-02T03:29:46.437Z,85.69
2023-04-02T03:30:46.446Z,85.80
2023-04-02T03:31:46.433Z,86.00
2023-04-02T03:32:46.466Z,86.11
2023-04-02T03:33:46.400Z,85.90
2023-04-02T03:34:46.373Z,86.00
2023-04-02T03:35:46.392Z,85.80
2023-04-02T03:36:46.356Z,85.80
2023-04-02T03:37:46.356Z,85.90
2023-04-02T03:38:46.336Z,86.11
2023-04-02T03:39:46.312Z,85.69
2023-04-02T03:40:46.313Z,85.69
2023-04-02T03:41:46.292Z,85.90
2023-04-02T03:42:46.296Z,86.11
2023-04-02T03:43:46.275Z,86.32
2023-04-02T03:44:46.256Z,86.11
2023-04-02T03:45:46.244Z,86.11
2023-04-02T03:46:46.260Z,86.21
2023-04-02T03:47:46.263Z,86.00
2023-04-02T03:48:46.213Z,86.42
2023-04-02T03:49:46.206Z,86.11
2023-04-02T03:50:46.190Z,86.21
2023-04-02T03:51:46.181Z,86.42
2023-04-02T03:52:46.186Z,86.73
2023-04-02T03:53:46.161Z,86.63
2023-04-02T03:54:54.020Z,86.57
2023-04-02T03:55:46.143Z,86.83
2023-04-02T03:56:46.131Z,87.50
2023-04-02T03:57:46.135Z,86.77
2023-04-02T03:58:46.100Z,86.77
2023-04-02T03:59:47.232Z,87.19
2023-04-02T04:00:46.084Z,86.88
2023-04-02T04:01:46.114Z,86.98
2023-04-02T04:02:46.126Z,86.98
2023-04-02T04:03:46.064Z,86.88
2023-04-02T04:04:46.033Z,87.08
2023-04-02T04:05:46.035Z,87.29
2023-04-02T04:06:46.022Z,87.29
2023-04-02T04:07:46.016Z,87.29
2023-04-02T04:08:45.986Z,87.50
2023-04-02T04:09:46.016Z,87.71
2023-04-02T04:10:45.983Z,87.40
2023-04-02T04:11:45.959Z,87.29
2023-04-02T04:12:45.989Z,87.50
2023-04-02T04:13:45.937Z,87.50
2023-04-02T04:14:45.939Z,87.40
2023-04-02T04:15:45.943Z,87.40
2023-04-02T04:16:45.968Z,87.71
2023-04-02T04:17:45.947Z,88.33
2023-04-02T04:18:45.886Z,88.33
2023-04-02T04:19:45.891Z,88.12
2023-04-02T04:20:45.862Z,87.65
2023-04-02T04:21:45.858Z,88.02
2023-04-02T04:22:45.874Z,87.71
2023-04-02T04:23:45.822Z,87.50
2023-04-02T04:24:45.847Z,87.19
2023-04-02T04:25:45.837Z,87.50
2023-04-02T04:26:45.798Z,87.40
2023-04-02T04:27:45.813Z,87.71
2023-04-02T04:28:45.780Z,87.92
2023-04-02T04:29:45.771Z,88.02
2023-04-02T04:30:45.759Z,87.81
2023-04-02T04:31:45.799Z,87.60
2023-04-02T04:32:45.766Z,87.60
2023-04-02T04:34:41.596Z,87.60
2023-04-02T04:35:42.600Z,87.81
2023-04-02T04:36:42.558Z,87.40
2023-04-02T04:37:43.299Z,87.19
2023-04-02T04:38:42.540Z,87.40
2023-04-02T04:39:42.603Z,87.92
2023-04-02T04:40:42.537Z,87.29
2023-04-02T04:41:42.570Z,87.40
2023-04-02T04:42:42.530Z,87.50
2023-04-02T04:43:42.492Z,87.85
2023-04-02T04:44:42.487Z,88.17
2023-04-02T04:45:42.523Z,88.58
2023-04-02T04:46:42.493Z,88.37
2023-04-02T04:47:42.533Z,88.27
2023-04-02T04:48:42.454Z,88.06
2023-04-02T04:49:42.490Z,88.06
2023-04-02T04:50:42.416Z,88.17
2023-04-02T04:51:42.467Z,87.85
2023-04-02T04:52:42.434Z,88.17
2023-04-02T04:53:42.384Z,88.27
2023-04-02T04:54:42.403Z,88.06
2023-04-02T04:55:42.413Z,88.17
2023-04-02T04:56:42.395Z,88.58
2023-04-02T04:57:42.409Z,88.89
2023-04-02T04:58:42.374Z,89.00
2023-04-02T04:59:42.373Z,88.17
2023-04-02T05:00:42.323Z,88.27
2023-04-02T05:01:42.313Z,88.27
2023-04-02T05:02:42.391Z,88.17
2023-04-02T05:03:42.300Z,88.37
2023-04-02T05:04:42.335Z,88.48
2023-04-02T05:05:42.272Z,88.37
2023-04-02T05:06:42.285Z,88.58
2023-04-02T05:07:42.264Z,88.37
2023-04-02T05:08:42.227Z,88.79
2023-04-02T05:09:42.248Z,89.10
2023-04-02T05:10:42.249Z,88.79
2023-04-02T05:11:42.238Z,89.00
2023-04-02T05:12:42.186Z,89.00
2023-04-02T05:13:42.169Z,89.00
2023-04-02T05:14:42.252Z,88.79
2023-04-02T05:15:42.242Z,88.89
2023-04-02T05:16:42.210Z,88.68
2023-04-02T05:17:42.206Z,88.79
2023-04-02T05:18:42.132Z,89.00
2023-04-02T05:19:42.123Z,89.41
2023-04-02T05:20:42.129Z,88.89
2023-04-02T05:21:42.160Z,88.68
2023-04-02T05:22:42.150Z,88.89
2023-04-02T05:23:42.139Z,89.10
2023-04-02T05:24:42.055Z,89.00
2023-04-02T05:25:42.041Z,88.89
2023-04-02T05:26:42.219Z,88.89
2023-04-02T05:27:42.124Z,88.89
2023-04-02T05:28:42.009Z,89.10
2023-04-02T05:29:42.028Z,89.31
2023-04-02T05:30:42.102Z,88.96
2023-04-02T05:31:42.051Z,89.10
2023-04-02T05:32:42.076Z,88.85
2023-04-02T05:33:42.015Z,89.00
2023-04-02T05:34:42.021Z,89.06
2023-04-02T05:35:42.012Z,88.85
2023-04-02T05:36:41.969Z,88.75
2023-04-02T05:37:41.941Z,88.75
2023-04-02T05:38:41.924Z,88.23
2023-04-02T05:39:41.902Z,88.33
2023-04-02T05:40:41.963Z,88.43
2023-04-02T05:41:41.863Z,88.43
2023-04-02T05:42:41.890Z,88.12
2023-04-02T05:43:41.896Z,88.43
2023-04-02T05:44:41.858Z,88.64
2023-04-02T05:45:41.833Z,88.43
2023-04-02T05:46:41.925Z,87.81
2023-04-02T05:47:41.871Z,87.98
2023-04-02T05:48:41.887Z,87.77
2023-04-02T05:49:41.803Z,87.98
2023-04-02T05:50:41.815Z,88.19
2023-04-02T05:51:41.778Z,87.56
2023-04-02T05:52:41.867Z,87.66
2023-04-02T05:53:41.748Z,87.66
2023-04-02T05:54:41.740Z,87.66
2023-04-02T05:55:41.725Z,87.04
2023-04-02T05:56:41.750Z,86.80
2023-04-02T05:57:46.903Z,87.01
2023-04-02T05:58:44.042Z,87.01
2023-04-02T05:59:41.685Z,86.49
2023-04-02T06:00:41.681Z,86.80
2023-04-02T06:01:41.735Z,87.21
2023-04-02T06:02:41.731Z,87.21
2023-04-02T06:03:41.709Z,86.80
2023-04-02T06:04:41.614Z,86.86
2023-04-02T06:05:41.626Z,86.86
2023-04-02T06:06:41.598Z,86.13
2023-04-02T06:07:41.655Z,86.13
2023-04-02T06:08:41.577Z,86.34
2023-04-02T06:09:41.627Z,85.72
2023-04-02T06:10:41.567Z,85.72
2023-04-02T06:11:41.546Z,85.72
2023-04-02T06:12:41.603Z,85.72
2023-04-02T06:13:41.521Z,85.88
2023-04-02T06:14:41.517Z,85.78
2023-04-02T06:15:41.565Z,86.09
2023-04-02T06:16:41.523Z,86.61
2023-04-02T06:17:41.578Z,85.68
2023-04-02T06:18:41.474Z,85.99
2023-04-02T06:19:41.461Z,86.09
2023-04-02T06:20:41.449Z,86.41
2023-04-02T06:21:41.445Z,86.19
2023-04-02T06:22:41.452Z,85.88
2023-04-02T06:23:41.407Z,85.88
2023-04-02T06:24:41.433Z,85.57
2023-04-02T06:25:41.385Z,85.68
2023-04-02T06:26:41.452Z,85.88
2023-04-02T06:27:41.400Z,85.99
2023-04-02T06:28:41.371Z,85.88
2023-04-02T06:29:41.345Z,85.36
2023-04-02T06:30:41.390Z,85.05
2023-04-02T06:31:41.340Z,85.47
2023-04-02T06:32:41.369Z,85.16
2023-04-02T06:33:41.322Z,84.74
2023-04-02T06:34:41.333Z,84.91
2023-04-02T06:35:41.326Z,84.81
2023-04-02T06:36:41.310Z,84.81
2023-04-02T06:37:41.296Z,84.81
2023-04-02T06:38:41.313Z,84.91
2023-04-02T06:39:41.349Z,85.02
2023-04-02T06:40:41.246Z,84.81
2023-04-02T06:41:41.219Z,84.81
2023-04-02T06:42:41.248Z,84.29
2023-04-02T06:43:41.238Z,84.19
2023-04-02T06:44:41.259Z,84.50
2023-04-02T06:45:41.274Z,84.60
2023-04-02T06:46:41.206Z,85.02
2023-04-02T06:47:41.224Z,84.91
2023-04-02T06:48:41.246Z,85.02
2023-04-02T06:49:41.144Z,85.43
2023-04-02T06:50:41.126Z,86.16
2023-04-02T06:51:41.110Z,86.36
2023-04-02T06:52:41.294Z,85.22
2023-04-02T06:53:41.115Z,84.98
2023-04-02T06:54:41.096Z,84.36
2023-04-02T06:55:41.091Z,84.46
2023-04-02T06:56:41.085Z,84.46
2023-04-02T06:57:42.585Z,84.98
2023-04-02T06:58:41.070Z,85.19
2023-04-02T06:59:41.042Z,84.25
2023-04-02T07:00:41.014Z,84.31
2023-04-02T07:01:41.021Z,84.73
2023-04-02T07:02:41.062Z,85.46
2023-04-02T07:03:41.036Z,84.56
2023-04-02T07:04:41.008Z,84.63
2023-04-02T07:05:42.975Z,85.04
2023-04-02T07:06:40.979Z,84.94
2023-04-02T07:07:40.936Z,84.73
2023-04-02T07:08:40.952Z,83.69
2023-04-02T07:09:40.941Z,83.86
2023-04-02T07:10:40.907Z,83.65
2023-04-02T07:11:40.886Z,83.24
2023-04-02T07:12:40.898Z,83.41
2023-04-02T07:13:40.876Z,83.31
2023-04-02T07:14:40.866Z,82.89
2023-04-02T07:15:40.845Z,82.37
2023-04-02T07:16:40.858Z,82.62
2023-04-02T07:17:40.830Z,82.93
2023-04-02T07:18:40.821Z,82.41
2023-04-02T07:19:40.817Z,82.82
2023-04-02T07:20:40.785Z,82.82
2023-04-02T07:21:40.770Z,82.37
2023-04-02T07:22:40.787Z,81.96
2023-04-02T07:23:40.781Z,81.85
2023-04-02T07:24:40.740Z,82.48
2023-04-02T07:25:40.739Z,82.37
2023-04-02T07:26:40.713Z,82.17
2023-04-02T07:27:40.750Z,81.96
2023-04-02T07:28:40.774Z,82.17
2023-04-02T07:29:40.700Z,82.17
2023-04-02T07:30:40.678Z,81.96
2023-04-02T07:31:40.730Z,81.96
2023-04-02T07:32:40.685Z,81.96
2023-04-02T07:33:42.148Z,82.27
2023-04-02T07:34:40.704Z,82.34
2023-04-02T07:35:40.640Z,82.44
2023-04-02T07:36:40.625Z,81.71
2023-04-02T07:37:40.600Z,82.44
2023-04-02T07:38:40.640Z,82.75
2023-04-02T07:39:40.837Z,82.44
2023-04-02T07:40:40.580Z,82.65
2023-04-02T07:41:40.554Z,82.71
2023-04-02T07:42:40.558Z,82.60
2023-04-02T07:43:40.583Z,82.29
2023-04-02T07:44:40.527Z,82.40
2023-04-02T07:45:40.522Z,82.50
2023-04-02T07:46:40.596Z,82.40
2023-04-02T07:47:40.527Z,82.50
2023-04-02T07:48:40.496Z,82.60
2023-04-02T07:49:40.489Z,82.50
2023-04-02T07:50:40.460Z,82.05
2023-04-02T07:51:40.462Z,81.43
2023-04-02T07:52:40.673Z,81.54
2023-04-02T07:53:40.450Z,81.23
2023-04-02T07:54:40.416Z,81.02
2023-04-02T07:55:40.464Z,81.12
2023-04-02T07:56:40.412Z,81.74
2023-04-02T07:57:40.395Z,82.15
2023-04-02T07:58:40.405Z,82.46
2023-04-02T07:59:40.378Z,82.46
2023-04-02T08:00:40.364Z,82.46
2023-04-02T08:01:40.397Z,82.05
2023-04-02T08:02:40.361Z,81.95
2023-04-02T08:03:40.416Z,82.05
2023-04-02T08:04:40.315Z,82.26
2023-04-02T08:05:40.318Z,82.46
2023-04-02T08:06:40.306Z,82.46
2023-04-02T08:07:40.295Z,82.36
2023-04-02T08:08:40.310Z,81.19
2023-04-02T08:09:40.323Z,81.09
2023-04-02T08:10:40.282Z,81.60
2023-04-02T08:11:40.256Z,81.60
2023-04-02T08:12:40.259Z,81.56
2023-04-02T08:13:40.229Z,81.77
2023-04-02T08:14:40.208Z,81.67
2023-04-02T08:15:40.237Z,81.32
2023-04-02T08:16:40.238Z,81.01
2023-04-02T08:17:40.193Z,80.80
2023-04-02T08:18:40.216Z,79.63
2023-04-02T08:19:51.969Z,79.83
2023-04-02T08:20:40.147Z,79.42
2023-04-02T08:21:40.123Z,78.77
2023-04-02T08:22:40.106Z,78.56
2023-04-02T08:23:40.125Z,78.59
2023-04-02T08:24:40.096Z,78.87
2023-04-02T08:25:40.090Z,78.25
2023-04-02T08:26:40.089Z,78.35
2023-04-02T08:27:40.064Z,78.45
2023-04-02T08:28:40.067Z,78.14
2023-04-02T08:29:40.061Z,77.84
2023-04-02T08:30:40.049Z,78.14
2023-04-02T08:31:40.021Z,78.14
2023-04-02T08:32:40.096Z,78.14
2023-04-02T08:33:40.017Z,78.56
2023-04-02T08:34:39.998Z,78.21
2023-04-02T08:35:40.373Z,78.21
2023-04-02T08:36:39.982Z,78.01
2023-04-02T08:37:39.954Z,77.80
2023-04-02T08:38:39.968Z,78.11
2023-04-02T08:39:39.958Z,77.63
2023-04-02T08:40:39.932Z,76.90
2023-04-02T08:41:39.904Z,75.77
2023-04-02T08:42:39.893Z,76.50
2023-04-02T08:43:39.904Z,76.60
2023-04-02T08:44:39.874Z,76.60
2023-04-02T08:45:40.048Z,76.39
2023-04-02T08:46:39.839Z,75.46
2023-04-02T08:47:39.857Z,75.57
2023-04-02T08:48:42.474Z,75.67
2023-04-02T08:49:39.823Z,75.57
2023-04-02T08:50:39.805Z,76.29
2023-04-02T08:51:39.789Z,76.43
2023-04-02T08:52:39.796Z,75.49
2023-04-02T08:53:39.789Z,76.22
2023-04-02T08:54:39.763Z,76.64
2023-04-02T08:55:39.769Z,76.64
2023-04-02T08:56:39.753Z,76.43
2023-04-02T08:57:39.722Z,76.53
2023-04-02T08:58:39.757Z,75.91
2023-04-02T08:59:39.735Z,75.15
2023-04-02T09:00:39.715Z,76.08
2023-04-02T09:01:39.718Z,76.08
2023-04-02T09:02:39.704Z,76.04
2023-04-02T09:03:39.681Z,76.04
2023-04-02T09:04:39.673Z,75.32
2023-04-02T09:05:39.636Z,74.81
2023-04-02T09:06:39.630Z,75.09
2023-04-02T09:07:39.618Z,74.77
2023-04-02T09:08:39.624Z,75.09
2023-04-02T09:09:39.603Z,74.74
2023-04-02T09:10:39.600Z,74.63
2023-04-02T09:11:39.600Z,73.81
2023-04-02T09:12:41.247Z,73.60
2023-04-02T09:13:39.575Z,73.88
2023-04-02T09:14:39.550Z,73.78
2023-04-02T09:15:39.563Z,72.44
2023-04-02T09:16:39.527Z,72.23
2023-04-02T09:17:50.695Z,72.54
2023-04-02T09:18:39.783Z,73.60
2023-04-02T09:19:39.511Z,74.53
2023-04-02T09:20:39.565Z,74.12
2023-04-02T09:21:39.619Z,74.53
2023-04-02T09:22:39.508Z,74.02
2023-04-02T09:23:39.473Z,72.88
2023-04-02T09:24:39.534Z,73.60
2023-04-02T09:25:39.444Z,73.60
2023-04-02T09:26:39.576Z,72.78
2023-04-02T09:27:39.414Z,71.85
2023-04-02T09:28:39.510Z,71.95
2023-04-02T09:29:39.389Z,72.16
2023-04-02T09:30:39.403Z,72.37
2023-04-02T09:31:39.410Z,71.13
2023-04-02T09:32:39.454Z,71.72
2023-04-02T09:33:39.386Z,71.61
2023-04-02T09:34:39.341Z,71.72
2023-04-02T09:35:39.436Z,71.20
2023-04-02T09:36:39.327Z,71.48
2023-04-02T09:37:39.301Z,70.96
2023-04-02T09:38:39.315Z,71.06
2023-04-02T09:39:39.307Z,71.58
2023-04-02T09:40:39.286Z,71.37
2023-04-02T09:41:39.268Z,70.65
2023-04-02T09:42:39.276Z,70.24
2023-04-02T09:43:39.310Z,71.06
2023-04-02T09:44:39.253Z,70.34
2023-04-02T09:45:39.246Z,70.65
2023-04-02T09:46:39.267Z,70.45
2023-04-02T09:47:40.941Z,70.55
2023-04-02T09:48:39.253Z,69.73
2023-04-02T09:49:39.200Z,68.90
2023-04-02T09:50:39.210Z,69.31
2023-04-02T09:51:39.165Z,69.62
2023-04-02T09:52:39.133Z,70.10
2023-04-02T09:53:41.888Z,69.70
2023-04-02T09:54:39.150Z,70.10
2023-04-02T09:55:39.122Z,70.72
2023-04-02T09:56:39.107Z,71.14
2023-04-02T09:57:39.085Z,71.03
2023-04-02T09:58:39.137Z,70.79
2023-04-02T09:59:39.083Z,70.07
2023-04-02T10:00:39.081Z,70.28
2023-04-02T10:01:39.331Z,70.28
2023-04-02T10:02:39.076Z,70.14
2023-04-02T10:03:39.044Z,70.35
2023-04-02T10:04:39.129Z,68.37
2023-04-02T10:05:40.979Z,65.89
2023-04-02T10:06:39.022Z,66.89
2023-04-02T10:07:38.985Z,67.20
2023-04-02T10:08:38.996Z,66.07
2023-04-02T10:09:38.994Z,66.89
2023-04-02T10:10:38.939Z,66.17
2023-04-02T10:11:46.369Z,65.45
2023-04-02T10:12:38.944Z,65.05
2023-04-02T10:13:38.936Z,64.94
2023-04-02T10:14:38.938Z,65.05
2023-04-02T10:15:38.894Z,65.45
2023-04-02T10:16:39.005Z,65.05
2023-04-02T10:17:38.922Z,64.63
2023-04-02T10:18:38.908Z,65.14
2023-04-02T10:19:38.845Z,64.32
2023-04-02T10:20:50.442Z,64.22
2023-04-02T10:21:38.834Z,64.53
2023-04-02T10:22:38.807Z,65.25
2023-04-02T10:23:38.827Z,65.05
2023-04-02T10:24:38.793Z,65.22
2023-04-02T10:25:38.777Z,65.22
2023-04-02T10:26:38.776Z,64.81
2023-04-02T10:27:38.775Z,64.40
2023-04-02T10:28:38.768Z,64.29
2023-04-02T10:29:38.728Z,64.60
2023-04-02T10:30:38.765Z,64.78
2023-04-02T10:31:38.717Z,64.37
2023-04-02T10:32:38.746Z,63.98
2023-04-02T10:33:38.748Z,64.29
2023-04-02T10:34:39.318Z,63.96
2023-04-02T10:35:39.043Z,64.16
2023-04-02T10:36:38.658Z,63.34
2023-04-02T10:37:38.656Z,63.51
2023-04-02T10:38:38.653Z,62.90
2023-04-02T10:39:38.656Z,63.21
2023-04-02T10:40:38.654Z,63.93
2023-04-02T10:41:38.618Z,63.00
2023-04-02T10:42:39.191Z,64.00
2023-04-02T10:43:38.620Z,63.51
2023-04-02T10:44:38.608Z,62.70
2023-04-02T10:45:38.778Z,62.90
2023-04-02T10:46:38.687Z,63.72
2023-04-02T10:47:38.647Z,63.93
2023-04-02T10:48:38.587Z,63.96
2023-04-02T10:49:38.630Z,63.93
2023-04-02T10:50:38.659Z,64.26
2023-04-02T10:51:38.515Z,63.85
2023-04-02T10:52:38.482Z,63.89
2023-04-02T10:53:38.495Z,64.60
2023-04-02T10:54:38.458Z,64.88
2023-04-02T10:55:38.484Z,63.75
2023-04-02T10:56:49.953Z,63.00
2023-04-02T10:57:38.522Z,62.26
2023-04-02T10:58:38.464Z,62.66
2023-04-02T10:59:38.414Z,61.92
2023-04-02T11:00:38.403Z,61.00
2023-04-02T11:01:38.429Z,61.82
2023-04-02T11:02:38.505Z,62.43
2023-04-02T11:03:38.494Z,62.95
2023-04-02T11:04:38.374Z,63.53
2023-04-02T11:05:38.357Z,61.27
2023-04-02T11:06:38.341Z,61.99
2023-04-02T11:07:38.339Z,61.38
2023-04-02T11:08:38.334Z,61.41
2023-04-02T11:09:38.309Z,62.12
2023-04-02T11:10:38.304Z,61.82
2023-04-02T11:11:38.291Z,62.95
2023-04-02T11:12:41.715Z,61.71
2023-04-02T11:13:38.282Z,59.87
2023-04-02T11:14:38.255Z,59.66
2023-04-02T11:15:38.238Z,60.41
2023-04-02T11:16:41.766Z,61.23
2023-04-02T11:17:38.258Z,61.51
2023-04-02T11:18:38.233Z,61.10
2023-04-02T11:19:38.209Z,61.51
2023-04-02T11:20:38.688Z,61.20
2023-04-02T11:21:44.885Z,61.30
2023-04-02T11:22:38.177Z,60.58
2023-04-02T11:23:38.157Z,62.71
2023-04-02T11:24:38.146Z,60.35
2023-04-02T11:25:38.135Z,60.63
2023-04-02T11:26:38.150Z,61.04
2023-04-02T11:27:38.105Z,61.66
2023-04-02T11:28:38.081Z,61.66
2023-04-02T11:29:38.128Z,62.48
2023-04-02T11:30:38.074Z,63.40
2023-04-02T11:31:38.083Z,64.09
2023-04-02T11:32:38.105Z,64.09
2023-04-02T11:33:41.258Z,63.50
2023-04-02T11:34:38.047Z,62.92
2023-04-02T11:35:38.320Z,63.46
2023-04-02T11:36:37.992Z,64.10
2023-04-02T11:37:37.988Z,63.51
2023-04-02T11:38:37.985Z,64.03
2023-04-02T11:39:38.018Z,64.03
2023-04-02T11:40:37.955Z,64.31
2023-04-02T11:41:37.953Z,65.03
2023-04-02T11:42:38.001Z,63.28
2023-04-02T11:43:37.917Z,62.12
2023-04-02T11:44:37.967Z,61.92
2023-04-02T11:45:46.708Z,61.41
2023-04-02T11:46:37.916Z,62.71
2023-04-02T11:47:37.908Z,61.99
2023-04-02T11:48:37.875Z,58.89
2023-04-02T11:49:37.886Z,58.28
2023-04-02T11:50:37.853Z,59.30
2023-04-02T11:51:37.844Z,60.33
2023-04-02T11:52:37.849Z,60.84
2023-04-02T11:53:37.866Z,61.35
2023-04-02T11:54:37.852Z,61.45
2023-04-02T11:55:38.211Z,61.55
2023-04-02T11:56:37.815Z,61.15
2023-04-02T11:57:37.944Z,60.42
2023-04-02T11:58:37.780Z,60.12
2023-04-02T11:59:37.791Z,58.79
2023-04-02T12:00:37.931Z,59.43
2023-04-02T12:01:37.894Z,60.46
2023-04-02T12:02:37.922Z,60.74
2023-04-02T12:03:37.750Z,61.04
2023-04-02T12:04:37.731Z,61.66
2023-04-02T12:05:38.082Z,60.22
2023-04-02T12:06:37.705Z,60.50
2023-04-02T12:07:37.683Z,61.11
2023-04-02T12:08:47.309Z,61.01
2023-04-02T12:09:37.699Z,61.43
2023-04-02T12:10:37.677Z,61.93
2023-04-02T12:11:37.612Z,61.80
2023-04-02T12:12:37.606Z,60.78
2023-04-02T12:13:37.623Z,60.58
2023-04-02T12:14:37.610Z,59.68
2023-04-02T12:15:37.646Z,59.68
2023-04-02T12:16:37.610Z,59.27
2023-04-02T12:17:37.598Z,60.10
2023-04-02T12:18:37.549Z,59.58
2023-04-02T12:19:37.580Z,59.50
2023-04-02T12:20:37.813Z,59.50
2023-04-02T12:21:37.514Z,58.38
2023-04-02T12:22:37.510Z,59.20
2023-04-02T12:23:37.480Z,58.89
2023-04-02T12:24:37.494Z,59.81
2023-04-02T12:25:37.456Z,60.53
2023-04-02T12:26:37.742Z,61.93
2023-04-02T12:27:37.445Z,60.50
2023-04-02T12:28:37.431Z,61.40
2023-04-02T12:29:37.491Z,60.37
2023-04-02T12:30:37.632Z,60.06
2023-04-02T12:31:37.450Z,59.55
2023-04-02T12:32:37.428Z,59.38
2023-04-02T12:33:37.516Z,59.78
2023-04-02T12:34:37.809Z,60.19
2023-04-02T12:35:37.369Z,60.91
2023-04-02T12:36:37.372Z,59.68
2023-04-02T12:37:37.329Z,61.22
2023-04-02T12:38:37.315Z,60.71
2023-04-02T12:39:37.330Z,60.71
2023-04-02T12:40:37.584Z,59.68
2023-04-02T12:41:37.281Z,58.86
2023-04-02T12:42:37.274Z,58.97
2023-04-02T12:43:37.256Z,59.07
2023-04-02T12:44:37.300Z,58.76
2023-04-02T12:45:37.237Z,59.58
2023-04-02T12:46:37.263Z,60.71
2023-04-02T12:47:37.237Z,59.68
2023-04-02T12:48:37.209Z,57.33
2023-04-02T12:49:37.209Z,57.87
2023-04-02T12:50:37.507Z,57.05
2023-04-02T12:51:37.228Z,57.25
2023-04-02T12:52:37.282Z,57.46
2023-04-02T12:53:37.166Z,57.35